createdAt,value
2023-03-22T00:01:24.776Z,49.60
2023-03-22T00:03:52.010Z,50.90
2023-03-22T00:06:18.960Z,51.70
2023-03-22T00:08:50.016Z,53.30
2023-03-22T00:11:17.088Z,53.90
2023-03-22T00:13:46.275Z,52.80
2023-03-22T00:16:16.881Z,49.20
2023-03-22T00:18:43.345Z,46.40
2023-03-22T00:21:16.737Z,43.90
2023-03-22T00:23:44.149Z,48.70
2023-03-22T00:26:13.417Z,46.80
2023-03-22T00:28:40.652Z,49.10
2023-03-22T00:31:08.115Z,45.70
2023-03-22T00:33:35.679Z,54.00
2023-03-22T00:36:08.865Z,92.50
2023-03-22T00:38:42.625Z,82.10
2023-03-22T00:41:15.329Z,93.80
2023-03-22T00:43:42.547Z,77.30
2023-03-22T00:46:11.003Z,69.00
2023-03-22T00:48:37.608Z,76.20
2023-03-22T00:51:04.976Z,87.40
2023-03-22T00:53:35.864Z,66.40
2023-03-22T00:56:03.822Z,66.60
2023-03-22T00:58:30.252Z,62.80
2023-03-22T01:00:56.930Z,61.80
2023-03-22T01:03:23.929Z,57.00
2023-03-22T01:05:54.774Z,58.00
2023-03-22T01:08:22.647Z,54.50
2023-03-22T01:10:49.756Z,56.60
2023-03-22T01:13:17.916Z,59.80
2023-03-22T01:15:47.056Z,57.40
2023-03-22T01:18:16.714Z,71.00
2023-03-22T01:20:43.189Z,67.90
2023-03-22T01:23:09.634Z,72.10
2023-03-22T01:25:36.377Z,80.00
2023-03-22T01:28:02.898Z,75.60
2023-03-22T01:30:29.664Z,89.50
2023-03-22T01:32:56.266Z,80.00
2023-03-22T01:35:22.908Z,75.60
2023-03-22T01:37:49.667Z,66.40
2023-03-22T01:40:16.637Z,68.60
2023-03-22T01:42:43.154Z,73.40
2023-03-22T01:45:12.515Z,78.10
2023-03-22T01:47:43.021Z,67.20
2023-03-22T01:50:09.786Z,77.60
2023-03-22T01:52:36.990Z,73.70
2023-03-22T01:55:05.729Z,92.10
2023-03-22T01:57:36.837Z,77.70
2023-03-22T02:00:12.644Z,89.20
2023-03-22T02:02:39.085Z,82.10
2023-03-22T02:05:05.865Z,101.20
2023-03-22T02:07:32.368Z,84.20
2023-03-22T02:09:59.154Z,119.00
2023-03-22T02:12:28.556Z,88.10
2023-03-22T02:15:24.336Z,84.10
2023-03-22T02:18:30.776Z,79.00
2023-03-22T02:21:56.046Z,83.40
2023-03-22T02:25:01.005Z,76.00
2023-03-22T02:27:34.961Z,62.60
2023-03-22T02:30:23.130Z,57.20
2023-03-22T02:32:52.390Z,57.10
2023-03-22T02:35:33.699Z,58.10
2023-03-22T02:38:32.295Z,62.50
2023-03-22T02:41:21.943Z,49.10
2023-03-22T02:43:48.314Z,55.90
2023-03-22T02:46:38.261Z,50.40
2023-03-22T02:49:35.213Z,52.10
2023-03-22T02:52:19.613Z,52.00
2023-03-22T02:54:54.490Z,49.60
2023-03-22T02:57:37.194Z,62.40
2023-03-22T03:00:10.911Z,56.70
2023-03-22T03:02:41.508Z,46.10
2023-03-22T03:05:10.275Z,52.00
2023-03-22T03:07:38.020Z,45.60
2023-03-22T03:10:05.965Z,51.00
2023-03-22T03:12:32.392Z,47.30
2023-03-22T03:14:58.888Z,46.50
2023-03-22T03:17:33.511Z,47.50
2023-03-22T03:20:18.587Z,45.00
2023-03-22T03:22:50.863Z,48.20
2023-03-22T03:25:30.693Z,46.00
2023-03-22T03:28:15.410Z,61.00
2023-03-22T03:30:55.828Z,55.40
2023-03-22T03:33:26.014Z,60.90
2023-03-22T03:36:00.459Z,60.00
2023-03-22T03:38:31.054Z,64.10
2023-03-22T03:41:01.574Z,57.50
2023-03-22T03:43:28.085Z,60.70
2023-03-22T03:45:55.263Z,61.60
2023-03-22T03:48:26.152Z,58.60
2023-03-22T03:50:53.661Z,53.50
2023-03-22T03:53:20.218Z,53.00
2023-03-22T03:55:46.715Z,47.60
2023-03-22T03:58:15.413Z,49.00
2023-03-22T04:00:42.546Z,52.70
2023-03-22T04:03:09.331Z,49.40
2023-03-22T04:05:36.284Z,50.50
2023-03-22T04:08:02.962Z,48.50
2023-03-22T04:10:29.656Z,41.50
2023-03-22T04:12:56.023Z,43.50
2023-03-22T04:15:23.530Z,49.20
2023-03-22T04:17:51.070Z,45.50
2023-03-22T04:20:17.822Z,42.40
2023-03-22T04:22:46.204Z,46.60
2023-03-22T04:25:13.745Z,41.80
2023-03-22T04:27:41.381Z,39.90
2023-03-22T04:30:11.759Z,45.10
2023-03-22T04:32:39.112Z,42.20
2023-03-22T04:35:05.932Z,42.90
2023-03-22T04:37:33.045Z,50.20
2023-03-22T04:39:59.978Z,54.40
2023-03-22T04:42:26.881Z,63.90
2023-03-22T04:44:53.508Z,65.80
2023-03-22T04:47:20.025Z,73.40
2023-03-22T04:49:47.492Z,64.20
2023-03-22T04:52:14.907Z,58.50
2023-03-22T04:54:41.806Z,65.90
2023-03-22T04:57:08.993Z,73.30
2023-03-22T04:59:35.386Z,77.00
2023-03-22T05:02:02.354Z,84.70
2023-03-22T05:04:28.889Z,88.80
2023-03-22T05:06:55.398Z,64.60
2023-03-22T05:09:23.505Z,63.10
2023-03-22T05:11:50.485Z,66.90
2023-03-22T05:14:16.926Z,64.90
2023-03-22T05:16:43.408Z,67.80
2023-03-22T05:19:15.651Z,67.70
2023-03-22T05:21:43.413Z,51.30
2023-03-22T05:24:10.655Z,53.60
2023-03-22T05:26:41.530Z,48.30
2023-03-22T05:29:10.335Z,49.30
2023-03-22T05:31:37.002Z,47.20
2023-03-22T05:34:03.922Z,43.80
2023-03-22T05:36:30.583Z,49.80
2023-03-22T05:39:04.066Z,37.50
2023-03-22T05:43:57.555Z,36.20
2023-03-22T05:46:54.149Z,43.50
2023-03-22T05:49:21.703Z,53.70
2023-03-22T05:51:50.051Z,45.80
2023-03-22T05:54:16.550Z,45.30
2023-03-22T05:56:43.644Z,46.40
2023-03-22T05:59:10.302Z,58.40
2023-03-22T06:01:37.137Z,34.10
2023-03-22T06:04:04.021Z,64.40
2023-03-22T06:06:30.871Z,57.40
2023-03-22T06:09:07.303Z,50.60
2023-03-22T06:11:42.460Z,48.30
2023-03-22T06:14:09.506Z,46.50
2023-03-22T06:16:36.535Z,57.00
2023-03-22T06:19:03.055Z,49.00
2023-03-22T06:21:29.771Z,53.50
2023-03-22T06:23:56.344Z,51.80
2023-03-22T06:26:22.785Z,49.10
2023-03-22T06:28:50.436Z,59.60
2023-03-22T06:31:17.320Z,49.70
2023-03-22T06:33:44.881Z,37.70
2023-03-22T06:36:11.472Z,33.70
2023-03-22T06:38:38.080Z,37.30
2023-03-22T06:41:05.226Z,28.10
2023-03-22T06:43:32.123Z,31.70
2023-03-22T06:45:58.615Z,32.50
2023-03-22T06:48:28.640Z,31.30
2023-03-22T06:50:55.142Z,35.60
2023-03-22T06:53:21.994Z,34.90
2023-03-22T06:55:49.040Z,29.70
2023-03-22T06:58:22.983Z,34.10
2023-03-22T07:00:49.750Z,33.40
2023-03-22T07:03:19.665Z,32.40
2023-03-22T07:05:46.592Z,36.00
2023-03-22T07:08:13.527Z,35.20
2023-03-22T07:10:40.629Z,34.40
2023-03-22T07:13:07.217Z,32.70
2023-03-22T07:15:34.438Z,33.30
2023-03-22T07:18:02.203Z,36.70
2023-03-22T07:20:29.178Z,34.50
2023-03-22T07:22:55.680Z,39.00
2023-03-22T07:25:22.356Z,30.30
2023-03-22T07:27:48.918Z,35.20
2023-03-22T07:30:15.962Z,32.80
2023-03-22T07:32:42.841Z,31.90
2023-03-22T07:35:09.369Z,33.30
2023-03-22T07:37:35.844Z,32.70
2023-03-22T07:40:04.234Z,33.00
2023-03-22T07:42:31.422Z,32.50
2023-03-22T07:44:58.706Z,32.60
2023-03-22T07:47:40.030Z,35.60
2023-03-22T07:50:08.982Z,36.40
2023-03-22T07:52:36.444Z,30.60
2023-03-22T07:55:04.297Z,31.40
2023-03-22T07:57:30.955Z,32.90
2023-03-22T08:00:02.917Z,33.00
2023-03-22T08:02:30.597Z,35.00
2023-03-22T08:04:57.293Z,35.80
2023-03-22T08:07:24.601Z,34.40
2023-03-22T08:09:51.731Z,35.40
2023-03-22T08:12:18.824Z,39.60
2023-03-22T08:14:49.827Z,37.10
2023-03-22T08:17:17.533Z,36.10
2023-03-22T08:19:57.929Z,37.80
2023-03-22T08:22:29.063Z,36.00
2023-03-22T08:24:55.933Z,37.40
2023-03-22T08:27:22.337Z,37.40
2023-03-22T08:29:48.853Z,36.90
2023-03-22T08:32:16.270Z,35.30
2023-03-22T08:34:43.842Z,37.30
2023-03-22T08:37:12.064Z,37.00
2023-03-22T08:39:39.185Z,33.30
2023-03-22T08:42:05.711Z,33.70
2023-03-22T08:44:32.139Z,33.90
2023-03-22T08:46:58.938Z,35.10
2023-03-22T08:49:26.570Z,31.90
2023-03-22T08:51:53.383Z,31.30
2023-03-22T08:54:20.162Z,32.90
2023-03-22T08:56:47.645Z,32.60
2023-03-22T08:59:14.155Z,31.90
2023-03-22T09:01:40.730Z,29.20
2023-03-22T09:04:10.199Z,32.50
2023-03-22T09:06:38.096Z,29.40
2023-03-22T09:09:04.551Z,30.70
2023-03-22T09:11:30.980Z,32.60
2023-03-22T09:13:57.384Z,30.20
2023-03-22T09:16:24.021Z,30.60
2023-03-22T09:18:50.985Z,30.60
2023-03-22T09:21:17.901Z,30.10
2023-03-22T09:23:47.398Z,30.80
2023-03-22T09:26:14.475Z,32.40
2023-03-22T09:28:41.071Z,32.90
2023-03-22T09:31:09.871Z,32.50
2023-03-22T09:33:38.330Z,27.80
2023-03-22T09:36:05.946Z,30.50
2023-03-22T09:38:35.816Z,29.00
2023-03-22T09:41:06.815Z,25.70
2023-03-22T09:43:37.311Z,27.80
2023-03-22T09:46:10.207Z,29.20
2023-03-22T09:48:40.242Z,28.20
2023-03-22T09:51:18.775Z,27.60
2023-03-22T09:53:45.251Z,28.10
2023-03-22T09:56:22.432Z,25.90
2023-03-22T09:59:10.662Z,27.60
2023-03-22T10:01:48.001Z,27.40
2023-03-22T10:04:35.724Z,29.60
2023-03-22T10:07:20.715Z,27.10
2023-03-22T10:10:12.031Z,30.10
2023-03-22T10:12:53.152Z,24.40
2023-03-22T10:15:28.168Z,26.60
2023-03-22T10:17:57.526Z,25.70
2023-03-22T10:20:33.711Z,23.80
2023-03-22T10:23:03.408Z,23.60
2023-03-22T10:25:39.463Z,22.10
2023-03-22T10:28:16.903Z,23.20
2023-03-22T10:30:50.371Z,23.40
2023-03-22T10:33:36.420Z,23.10
2023-03-22T10:36:05.549Z,21.50
2023-03-22T10:38:36.886Z,20.90
2023-03-22T10:41:04.878Z,18.60
2023-03-22T10:43:40.715Z,16.80
2023-03-22T10:46:14.948Z,16.30
2023-03-22T10:48:45.071Z,15.60
2023-03-22T10:51:22.599Z,13.60
2023-03-22T10:53:53.145Z,17.50
2023-03-22T10:56:20.609Z,16.80
2023-03-22T10:58:49.094Z,18.10
2023-03-22T11:01:25.122Z,20.60
2023-03-22T11:03:56.759Z,19.30
2023-03-22T11:06:26.594Z,18.60
2023-03-22T11:08:57.773Z,19.40
2023-03-22T11:11:36.039Z,16.70
2023-03-22T11:14:07.732Z,17.20
2023-03-22T11:16:51.995Z,17.40
2023-03-22T11:19:23.143Z,17.10
2023-03-22T11:21:50.982Z,18.20
2023-03-22T11:24:18.375Z,16.80
2023-03-22T11:27:20.908Z,18.90
2023-03-22T11:29:53.372Z,16.40
2023-03-22T11:32:29.526Z,16.30
2023-03-22T11:35:04.783Z,15.20
2023-03-22T11:37:31.223Z,14.50
2023-03-22T11:40:01.288Z,13.90
2023-03-22T11:42:28.480Z,14.80
2023-03-22T11:44:56.574Z,15.60
2023-03-22T11:47:26.511Z,14.90
2023-03-22T11:49:56.607Z,16.30
2023-03-22T11:52:26.218Z,16.40
2023-03-22T11:54:54.639Z,12.60
2023-03-22T11:57:25.795Z,14.70
2023-03-22T12:00:17.581Z,15.30
2023-03-22T12:02:55.120Z,17.00
2023-03-22T12:05:26.675Z,15.70
2023-03-22T12:08:16.705Z,13.00
2023-03-22T12:10:50.477Z,11.70
2023-03-22T12:14:02.486Z,13.80
2023-03-22T12:16:36.160Z,12.40
2023-03-22T12:19:50.873Z,14.10
2023-03-22T12:24:47.618Z,13.60
2023-03-22T12:27:24.083Z,15.60
2023-03-22T12:29:59.357Z,12.00
2023-03-22T12:32:35.554Z,13.50
2023-03-22T12:35:16.651Z,14.40
2023-03-22T12:37:57.604Z,14.30
2023-03-22T12:40:33.769Z,13.10
2023-03-22T12:43:06.054Z,13.30
2023-03-22T12:45:40.092Z,15.30
2023-03-22T12:48:13.993Z,14.30
2023-03-22T12:50:56.780Z,14.60
2023-03-22T12:53:30.546Z,14.50
2023-03-22T12:55:59.283Z,15.10
2023-03-22T12:58:26.768Z,14.30
2023-03-22T13:00:58.005Z,14.30
2023-03-22T13:03:36.443Z,13.80
2023-03-22T13:06:32.539Z,16.90
2023-03-22T13:09:01.974Z,13.80
2023-03-22T13:11:28.457Z,16.10
2023-03-22T13:13:55.384Z,15.40
2023-03-22T13:16:40.428Z,14.30
2023-03-22T13:19:26.105Z,15.50
2023-03-22T13:22:14.200Z,14.50
2023-03-22T13:25:04.068Z,18.30
2023-03-22T13:27:53.335Z,15.50
2023-03-22T13:30:21.076Z,14.00
2023-03-22T13:32:53.861Z,13.90
2023-03-22T13:35:27.330Z,16.30
2023-03-22T13:38:02.253Z,15.30
2023-03-22T13:40:37.466Z,16.80
2023-03-22T13:43:22.996Z,14.60
2023-03-22T13:46:17.060Z,15.80
2023-03-22T13:48:46.860Z,14.40
2023-03-22T13:51:16.897Z,16.40
2023-03-22T13:54:04.244Z,15.30
2023-03-22T13:57:01.922Z,15.30
2023-03-22T14:00:14.790Z,14.50
2023-03-22T14:02:51.595Z,15.10
2023-03-22T14:05:26.149Z,15.90
2023-03-22T14:07:59.656Z,12.60
2023-03-22T14:13:54.529Z,15.40
2023-03-22T14:17:02.476Z,14.70
2023-03-22T14:19:38.992Z,14.10
